Aviation Digital Data Service (ADDS)

Output produced by METARs form (2244 UTC 02 August 2021)
found at http://www.aviationweather.gov/metar/data/
 
METAR text: OKBK 022200Z 34003KT CAVOK 38/06 Q0997 NOSIG
Conditions at: OKBK (KUWAIT INTL (MIL, KW) observed 2200 UTC 02 August 2021
Temperature: 38.0°C (100°F)
Dewpoint: 6.0°C (43°F) [RH = 14%]
Pressure (altimeter): 29.44 inches Hg (997.0 mb)
Winds: from the NNW (340 degrees) at 3 MPH (3 knots; 1.5 m/s)
Visibility: 6 or more miles (10+ km)
Ceiling: ceiling and visibility are OK
Clouds: unknown
Weather: no significant weather observed at this time

METAR text: OKBK 022100Z 23003KT CAVOK 35/14 Q0997 NOSIG
Conditions at: OKBK (KUWAIT INTL (MIL, KW) observed 2100 UTC 02 August 2021
Temperature: 35.0°C (95°F)
Dewpoint: 14.0°C (57°F) [RH = 28%]
Pressure (altimeter): 29.44 inches Hg (997.0 mb)
Winds: from the SW (230 degrees) at 3 MPH (3 knots; 1.5 m/s)
Visibility: 6 or more miles (10+ km)
Ceiling: ceiling and visibility are OK
Clouds: unknown
Weather: no significant weather observed at this time

METAR text: OKBK 022000Z 20003KT CAVOK 36/15 Q0998 NOSIG
Conditions at: OKBK (KUWAIT INTL (MIL, KW) observed 2000 UTC 02 August 2021
Temperature: 36.0°C (97°F)
Dewpoint: 15.0°C (59°F) [RH = 29%]
Pressure (altimeter): 29.47 inches Hg (998.0 mb)
Winds: from the SSW (200 degrees) at 3 MPH (3 knots; 1.5 m/s)
Visibility: 6 or more miles (10+ km)
Ceiling: ceiling and visibility are OK
Clouds: unknown
Weather: no significant weather observed at this time

METAR text: OKBK 021900Z 18008KT CAVOK 38/18 Q0998 NOSIG
Conditions at: OKBK (KUWAIT INTL (MIL, KW) observed 1900 UTC 02 August 2021
Temperature: 38.0°C (100°F)
Dewpoint: 18.0°C (64°F) [RH = 31%]
Pressure (altimeter): 29.47 inches Hg (998.0 mb)
Winds: from the S (180 degrees) at 9 MPH (8 knots; 4.1 m/s)
Visibility: 6 or more miles (10+ km)
Ceiling: ceiling and visibility are OK
Clouds: unknown
Weather: no significant weather observed at this time

METAR text: OKBK 021800Z 12005KT CAVOK 39/25 Q0998 NOSIG
Conditions at: OKBK (KUWAIT INTL (MIL, KW) observed 1800 UTC 02 August 2021
Temperature: 39.0°C (102°F)
Dewpoint: 25.0°C (77°F) [RH = 45%]
Pressure (altimeter): 29.47 inches Hg (998.0 mb)
Winds: from the ESE (120 degrees) at 6 MPH (5 knots; 2.6 m/s)
Visibility: 6 or more miles (10+ km)
Ceiling: ceiling and visibility are OK
Clouds: unknown
Weather: no significant weather observed at this time

METAR text: OKBK 021700Z 13004KT CAVOK 40/18 Q0997 NOSIG
Conditions at: OKBK (KUWAIT INTL (MIL, KW) observed 1700 UTC 02 August 2021
Temperature: 40.0°C (104°F)
Dewpoint: 18.0°C (64°F) [RH = 28%]
Pressure (altimeter): 29.44 inches Hg (997.0 mb)
Winds: from the SE (130 degrees) at 5 MPH (4 knots; 2.1 m/s)
Visibility: 6 or more miles (10+ km)
Ceiling: ceiling and visibility are OK
Clouds: unknown
Weather: no significant weather observed at this time

METAR text: OKBK 021600Z 16007KT CAVOK 42/18 Q0996 NOSIG
Conditions at: OKBK (KUWAIT INTL (MIL, KW) observed 1600 UTC 02 August 2021
Temperature: 42.0°C (108°F)
Dewpoint: 18.0°C (64°F) [RH = 25%]
Pressure (altimeter): 29.41 inches Hg (996.0 mb)
Winds: from the SSE (160 degrees) at 8 MPH (7 knots; 3.6 m/s)
Visibility: 6 or more miles (10+ km)
Ceiling: ceiling and visibility are OK
Clouds: unknown
Weather: no significant weather observed at this time

METAR text: OKBK 021500Z 13006KT CAVOK 44/15 Q0995 NOSIG
Conditions at: OKBK (KUWAIT INTL (MIL, KW) observed 1500 UTC 02 August 2021
Temperature: 44.0°C (111°F)
Dewpoint: 15.0°C (59°F) [RH = 19%]
Pressure (altimeter): 29.38 inches Hg (995.0 mb)
Winds: from the SE (130 degrees) at 7 MPH (6 knots; 3.1 m/s)
Visibility: 6 or more miles (10+ km)
Ceiling: ceiling and visibility are OK
Clouds: unknown
Weather: no significant weather observed at this time

METAR text: OKBK 021400Z 01010KT CAVOK 47/05 Q0995 NOSIG
Conditions at: OKBK (KUWAIT INTL (MIL, KW) observed 1400 UTC 02 August 2021
Temperature: 47.0°C (117°F)
Dewpoint: 5.0°C (41°F) [RH =  8%]
Pressure (altimeter): 29.38 inches Hg (995.0 mb)
Winds: from the N (10 degrees) at 12 MPH (10 knots; 5.1 m/s)
Visibility: 6 or more miles (10+ km)
Ceiling: ceiling and visibility are OK
Clouds: unknown
Weather: no significant weather observed at this time

METAR text: OKBK 021300Z 36011KT CAVOK 48/05 Q0995 NOSIG
Conditions at: OKBK (KUWAIT INTL (MIL, KW) observed 1300 UTC 02 August 2021
Temperature: 48.0°C (118°F)
Dewpoint: 5.0°C (41°F) [RH =  8%]
Pressure (altimeter): 29.38 inches Hg (995.0 mb)
Winds: from the N (360 degrees) at 13 MPH (11 knots; 5.7 m/s)
Visibility: 6 or more miles (10+ km)
Ceiling: ceiling and visibility are OK
Clouds: unknown
Weather: no significant weather observed at this time

METAR text: OKBK 021200Z 34012KT CAVOK 48/06 Q0996 NOSIG
Conditions at: OKBK (KUWAIT INTL (MIL, KW) observed 1200 UTC 02 August 2021
Temperature: 48.0°C (118°F)
Dewpoint: 6.0°C (43°F) [RH =  8%]
Pressure (altimeter): 29.41 inches Hg (996.0 mb)
Winds: from the NNW (340 degrees) at 14 MPH (12 knots; 6.2 m/s)
Visibility: 6 or more miles (10+ km)
Ceiling: ceiling and visibility are OK
Clouds: unknown
Weather: no significant weather observed at this time

METAR text: OKBK 021100Z 36012KT CAVOK 48/06 Q0996 NOSIG
Conditions at: OKBK (KUWAIT INTL (MIL, KW) observed 1100 UTC 02 August 2021
Temperature: 48.0°C (118°F)
Dewpoint: 6.0°C (43°F) [RH =  8%]
Pressure (altimeter): 29.41 inches Hg (996.0 mb)
Winds: from the N (360 degrees) at 14 MPH (12 knots; 6.2 m/s)
Visibility: 6 or more miles (10+ km)
Ceiling: ceiling and visibility are OK
Clouds: unknown
Weather: no significant weather observed at this time

METAR text: OKBK 021000Z 31008KT 7000 NSC 48/04 Q0996 NOSIG
Conditions at: OKBK (KUWAIT INTL (MIL, KW) observed 1000 UTC 02 August 2021
Temperature: 48.0°C (118°F)
Dewpoint: 4.0°C (39°F) [RH =  7%]
Pressure (altimeter): 29.41 inches Hg (996.0 mb)
Winds: from the NW (310 degrees) at 9 MPH (8 knots; 4.1 m/s)
Visibility: 4 miles ( 7 km)
Ceiling: at least 12,000 feet AGL
Clouds: sky clear below 12,000 feet AGL
Weather: no significant weather observed at this time

METAR text: OKBK 020900Z 35006KT 7000 NSC 48/04 Q0997 NOSIG
Conditions at: OKBK (KUWAIT INTL (MIL, KW) observed 0900 UTC 02 August 2021
Temperature: 48.0°C (118°F)
Dewpoint: 4.0°C (39°F) [RH =  7%]
Pressure (altimeter): 29.44 inches Hg (997.0 mb)
Winds: from the N (350 degrees) at 7 MPH (6 knots; 3.1 m/s)
Visibility: 4 miles ( 7 km)
Ceiling: at least 12,000 feet AGL
Clouds: sky clear below 12,000 feet AGL
Weather: no significant weather observed at this time

METAR text: OKBK 020800Z 34006KT 7000 NSC 47/05 Q0997 NOSIG
Conditions at: OKBK (KUWAIT INTL (MIL, KW) observed 0800 UTC 02 August 2021
Temperature: 47.0°C (117°F)
Dewpoint: 5.0°C (41°F) [RH =  8%]
Pressure (altimeter): 29.44 inches Hg (997.0 mb)
Winds: from the NNW (340 degrees) at 7 MPH (6 knots; 3.1 m/s)
Visibility: 4 miles ( 7 km)
Ceiling: at least 12,000 feet AGL
Clouds: sky clear below 12,000 feet AGL
Weather: no significant weather observed at this time

METAR text: OKBK 020700Z 32008KT 7000 NSC 45/05 Q0997 NOSIG
Conditions at: OKBK (KUWAIT INTL (MIL, KW) observed 0700 UTC 02 August 2021
Temperature: 45.0°C (113°F)
Dewpoint: 5.0°C (41°F) [RH =  9%]
Pressure (altimeter): 29.44 inches Hg (997.0 mb)
Winds: from the NW (320 degrees) at 9 MPH (8 knots; 4.1 m/s)
Visibility: 4 miles ( 7 km)
Ceiling: at least 12,000 feet AGL
Clouds: sky clear below 12,000 feet AGL
Weather: no significant weather observed at this time

METAR text: OKBK 020600Z 29006KT 7000 NSC 44/07 Q0997 NOSIG
Conditions at: OKBK (KUWAIT INTL (MIL, KW) observed 0600 UTC 02 August 2021
Temperature: 44.0°C (111°F)
Dewpoint: 7.0°C (45°F) [RH = 11%]
Pressure (altimeter): 29.44 inches Hg (997.0 mb)
Winds: from the WNW (290 degrees) at 7 MPH (6 knots; 3.1 m/s)
Visibility: 4 miles ( 7 km)
Ceiling: at least 12,000 feet AGL
Clouds: sky clear below 12,000 feet AGL
Weather: no significant weather observed at this time

METAR text: OKBK 020500Z 27005KT 7000 NSC 40/07 Q0997 NOSIG
Conditions at: OKBK (KUWAIT INTL (MIL, KW) observed 0500 UTC 02 August 2021
Temperature: 40.0°C (104°F)
Dewpoint: 7.0°C (45°F) [RH = 14%]
Pressure (altimeter): 29.44 inches Hg (997.0 mb)
Winds: from the W (270 degrees) at 6 MPH (5 knots; 2.6 m/s)
Visibility: 4 miles ( 7 km)
Ceiling: at least 12,000 feet AGL
Clouds: sky clear below 12,000 feet AGL
Weather: no significant weather observed at this time

METAR text: OKBK 020400Z 28003KT CAVOK 36/08 Q0997 NOSIG
Conditions at: OKBK (KUWAIT INTL (MIL, KW) observed 0400 UTC 02 August 2021
Temperature: 36.0°C (97°F)
Dewpoint: 8.0°C (46°F) [RH = 18%]
Pressure (altimeter): 29.44 inches Hg (997.0 mb)
Winds: from the W (280 degrees) at 3 MPH (3 knots; 1.5 m/s)
Visibility: 6 or more miles (10+ km)
Ceiling: ceiling and visibility are OK
Clouds: unknown
Weather: no significant weather observed at this time

METAR text: OKBK 020300Z 20003KT CAVOK 32/09 Q0996 NOSIG
Conditions at: OKBK (KUWAIT INTL (MIL, KW) observed 0300 UTC 02 August 2021
Temperature: 32.0°C (90°F)
Dewpoint: 9.0°C (48°F) [RH = 24%]
Pressure (altimeter): 29.41 inches Hg (996.0 mb)
Winds: from the SSW (200 degrees) at 3 MPH (3 knots; 1.5 m/s)
Visibility: 6 or more miles (10+ km)
Ceiling: ceiling and visibility are OK
Clouds: unknown
Weather: no significant weather observed at this time

METAR text: OKBK 020200Z 20004KT CAVOK 31/11 Q0996 NOSIG
Conditions at: OKBK (KUWAIT INTL (MIL, KW) observed 0200 UTC 02 August 2021
Temperature: 31.0°C (88°F)
Dewpoint: 11.0°C (52°F) [RH = 29%]
Pressure (altimeter): 29.41 inches Hg (996.0 mb)
Winds: from the SSW (200 degrees) at 5 MPH (4 knots; 2.1 m/s)
Visibility: 6 or more miles (10+ km)
Ceiling: ceiling and visibility are OK
Clouds: unknown
Weather: no significant weather observed at this time

METAR text: OKBK 020100Z 16005KT CAVOK 31/12 Q0996 NOSIG
Conditions at: OKBK (KUWAIT INTL (MIL, KW) observed 0100 UTC 02 August 2021
Temperature: 31.0°C (88°F)
Dewpoint: 12.0°C (54°F) [RH = 31%]
Pressure (altimeter): 29.41 inches Hg (996.0 mb)
Winds: from the SSE (160 degrees) at 6 MPH (5 knots; 2.6 m/s)
Visibility: 6 or more miles (10+ km)
Ceiling: ceiling and visibility are OK
Clouds: unknown
Weather: no significant weather observed at this time

METAR text: OKBK 020000Z 18004KT CAVOK 32/12 Q0996 NOSIG
Conditions at: OKBK (KUWAIT INTL (MIL, KW) observed 0000 UTC 02 August 2021
Temperature: 32.0°C (90°F)
Dewpoint: 12.0°C (54°F) [RH = 30%]
Pressure (altimeter): 29.41 inches Hg (996.0 mb)
Winds: from the S (180 degrees) at 5 MPH (4 knots; 2.1 m/s)
Visibility: 6 or more miles (10+ km)
Ceiling: ceiling and visibility are OK
Clouds: unknown
Weather: no significant weather observed at this time

METAR text: OKBK 012300Z 00000KT CAVOK 32/14 Q0996 NOSIG
Conditions at: OKBK (KUWAIT INTL (MIL, KW) observed 2300 UTC 01 August 2021
Temperature: 32.0°C (90°F)
Dewpoint: 14.0°C (57°F) [RH = 34%]
Pressure (altimeter): 29.41 inches Hg (996.0 mb)
Winds: calm
Visibility: 6 or more miles (10+ km)
Ceiling: ceiling and visibility are OK
Clouds: unknown
Weather: no significant weather observed at this time

METAR text: OKBK 012200Z 00000KT CAVOK 33/15 Q0996 NOSIG
Conditions at: OKBK (KUWAIT INTL (MIL, KW) observed 2200 UTC 01 August 2021
Temperature: 33.0°C (91°F)
Dewpoint: 15.0°C (59°F) [RH = 34%]
Pressure (altimeter): 29.41 inches Hg (996.0 mb)
Winds: calm
Visibility: 6 or more miles (10+ km)
Ceiling: ceiling and visibility are OK
Clouds: unknown
Weather: no significant weather observed at this time

METAR text: OKBK 012100Z 00000KT CAVOK 33/16 Q0997 NOSIG
Conditions at: OKBK (KUWAIT INTL (MIL, KW) observed 2100 UTC 01 August 2021
Temperature: 33.0°C (91°F)
Dewpoint: 16.0°C (61°F) [RH = 36%]
Pressure (altimeter): 29.44 inches Hg (997.0 mb)
Winds: calm
Visibility: 6 or more miles (10+ km)
Ceiling: ceiling and visibility are OK
Clouds: unknown
Weather: no significant weather observed at this time

METAR text: OKBK 012000Z 17008KT CAVOK 36/17 Q0997 NOSIG
Conditions at: OKBK (KUWAIT INTL (MIL, KW) observed 2000 UTC 01 August 2021
Temperature: 36.0°C (97°F)
Dewpoint: 17.0°C (63°F) [RH = 33%]
Pressure (altimeter): 29.44 inches Hg (997.0 mb)
Winds: from the S (170 degrees) at 9 MPH (8 knots; 4.1 m/s)
Visibility: 6 or more miles (10+ km)
Ceiling: ceiling and visibility are OK
Clouds: unknown
Weather: no significant weather observed at this time

METAR text: OKBK 011900Z 17007KT CAVOK 36/18 Q0997 NOSIG
Conditions at: OKBK (KUWAIT INTL (MIL, KW) observed 1900 UTC 01 August 2021
Temperature: 36.0°C (97°F)
Dewpoint: 18.0°C (64°F) [RH = 35%]
Pressure (altimeter): 29.44 inches Hg (997.0 mb)
Winds: from the S (170 degrees) at 8 MPH (7 knots; 3.6 m/s)
Visibility: 6 or more miles (10+ km)
Ceiling: ceiling and visibility are OK
Clouds: unknown
Weather: no significant weather observed at this time

METAR text: OKBK 011800Z 17006KT CAVOK 37/17 Q0997 NOSIG
Conditions at: OKBK (KUWAIT INTL (MIL, KW) observed 1800 UTC 01 August 2021
Temperature: 37.0°C (99°F)
Dewpoint: 17.0°C (63°F) [RH = 31%]
Pressure (altimeter): 29.44 inches Hg (997.0 mb)
Winds: from the S (170 degrees) at 7 MPH (6 knots; 3.1 m/s)
Visibility: 6 or more miles (10+ km)
Ceiling: ceiling and visibility are OK
Clouds: unknown
Weather: no significant weather observed at this time

METAR text: OKBK 011700Z 15006KT 8000 NSC 38/20 Q0997 NOSIG
Conditions at: OKBK (KUWAIT INTL (MIL, KW) observed 1700 UTC 01 August 2021
Temperature: 38.0°C (100°F)
Dewpoint: 20.0°C (68°F) [RH = 35%]
Pressure (altimeter): 29.44 inches Hg (997.0 mb)
Winds: from the SSE (150 degrees) at 7 MPH (6 knots; 3.1 m/s)
Visibility: 5 miles ( 8 km)
Ceiling: at least 12,000 feet AGL
Clouds: sky clear below 12,000 feet AGL
Weather: no significant weather observed at this time

METAR text: OKBK 011600Z 12009KT 8000 NSC 41/14 Q0996 NOSIG
Conditions at: OKBK (KUWAIT INTL (MIL, KW) observed 1600 UTC 01 August 2021
Temperature: 41.0°C (106°F)
Dewpoint: 14.0°C (57°F) [RH = 21%]
Pressure (altimeter): 29.41 inches Hg (996.0 mb)
Winds: from the ESE (120 degrees) at 10 MPH (9 knots; 4.6 m/s)
Visibility: 5 miles ( 8 km)
Ceiling: at least 12,000 feet AGL
Clouds: sky clear below 12,000 feet AGL
Weather: no significant weather observed at this time

METAR text: OKBK 011500Z 11011KT 8000 NSC 42/14 Q0996 NOSIG
Conditions at: OKBK (KUWAIT INTL (MIL, KW) observed 1500 UTC 01 August 2021
Temperature: 42.0°C (108°F)
Dewpoint: 14.0°C (57°F) [RH = 20%]
Pressure (altimeter): 29.41 inches Hg (996.0 mb)
Winds: from the ESE (110 degrees) at 13 MPH (11 knots; 5.7 m/s)
Visibility: 5 miles ( 8 km)
Ceiling: at least 12,000 feet AGL
Clouds: sky clear below 12,000 feet AGL
Weather: no significant weather observed at this time

METAR text: OKBK 011400Z 11012KT 8000 NSC 45/12 Q0996 NOSIG
Conditions at: OKBK (KUWAIT INTL (MIL, KW) observed 1400 UTC 01 August 2021
Temperature: 45.0°C (113°F)
Dewpoint: 12.0°C (54°F) [RH = 15%]
Pressure (altimeter): 29.41 inches Hg (996.0 mb)
Winds: from the ESE (110 degrees) at 14 MPH (12 knots; 6.2 m/s)
Visibility: 5 miles ( 8 km)
Ceiling: at least 12,000 feet AGL
Clouds: sky clear below 12,000 feet AGL
Weather: no significant weather observed at this time

METAR text: OKBK 011300Z 13016KT 8000 NSC 46/06 Q0996 NOSIG
Conditions at: OKBK (KUWAIT INTL (MIL, KW) observed 1300 UTC 01 August 2021
Temperature: 46.0°C (115°F)
Dewpoint: 6.0°C (43°F) [RH =  9%]
Pressure (altimeter): 29.41 inches Hg (996.0 mb)
Winds: from the SE (130 degrees) at 18 MPH (16 knots; 8.2 m/s)
Visibility: 5 miles ( 8 km)
Ceiling: at least 12,000 feet AGL
Clouds: sky clear below 12,000 feet AGL
Weather: no significant weather observed at this time

METAR text: OKBK 011259Z 13016KT 8000 NSC 46/06 Q0996 NOSIG
Conditions at: OKBK (KUWAIT INTL (MIL, KW) observed 1259 UTC 01 August 2021
Temperature: 46.0°C (115°F)
Dewpoint: 6.0°C (43°F) [RH =  9%]
Pressure (altimeter): 29.41 inches Hg (996.0 mb)
Winds: from the SE (130 degrees) at 18 MPH (16 knots; 8.2 m/s)
Visibility: 5 miles ( 8 km)
Ceiling: at least 12,000 feet AGL
Clouds: sky clear below 12,000 feet AGL
Weather: no significant weather observed at this time

METAR text: OKBK 011200Z 30005KT 8000 NSC 48/05 Q0996 NOSIG
Conditions at: OKBK (KUWAIT INTL (MIL, KW) observed 1200 UTC 01 August 2021
Temperature: 48.0°C (118°F)
Dewpoint: 5.0°C (41°F) [RH =  8%]
Pressure (altimeter): 29.41 inches Hg (996.0 mb)
Winds: from the WNW (300 degrees) at 6 MPH (5 knots; 2.6 m/s)
Visibility: 5 miles ( 8 km)
Ceiling: at least 12,000 feet AGL
Clouds: sky clear below 12,000 feet AGL
Weather: no significant weather observed at this time

METAR text: OKBK 011100Z 36008KT 8000 NSC 48/06 Q0997 NOSIG
Conditions at: OKBK (KUWAIT INTL (MIL, KW) observed 1100 UTC 01 August 2021
Temperature: 48.0°C (118°F)
Dewpoint: 6.0°C (43°F) [RH =  8%]
Pressure (altimeter): 29.44 inches Hg (997.0 mb)
Winds: from the N (360 degrees) at 9 MPH (8 knots; 4.1 m/s)
Visibility: 5 miles ( 8 km)
Ceiling: at least 12,000 feet AGL
Clouds: sky clear below 12,000 feet AGL
Weather: no significant weather observed at this time

Forecast for: OKBK (KUWAIT INTL (MIL, KW)
Text: TAF OKBK 021645Z 0218/0324 33012KT 7000 NSC
Forecast period: 1800 UTC 02 August 2021 to 0000 UTC 04 August 2021
Forecast type: FROM: standard forecast or significant change
Winds: from the NNW (330 degrees) at 14 MPH (12 knots; 6.2 m/s)
Visibility: 4 miles (7 km)
Ceiling: unknown
Clouds: missing
Weather: no significant weather forecast for this period
Text: TEMPO 0218/0304 VRB03KT 4000 HZ
Forecast period: 1800 UTC 02 August 2021 to 0400 UTC 03 August 2021
Forecast type: TEMPORARY: The following changes expected for less than half the time period
Winds: variable direction winds at 3 MPH (3 knots; 1.5 m/s)
Visibility: 2.49 miles (4.01 km)
Ceiling: unknown
Clouds: missing
Weather: HZ  (haze)